TAF KDLH
KDLH 280525Z 2806/2906 30014G26KT P6SM BKN035 FM281800 31010KT P6SM SCT030 FM290000 29005KT P6SM SCT120=
METAR KDLH
WC KDLH
WS KDLH
WV KDLH